CYFT

Makkovik Airport

Makkovik, Canada
METAR CYFT 161000Z 24024G37KT 15SM DRSN SKC M10/M15 A2904 RMK SLP841
Observed Flight Rules
Dec-16 @ 10:00 UTC (51 minutes ago) Visual Flight Rules
Wind Visibility Clouds Conditions
240° at 24 knots
 Gusting to 37 knots
15 miles
  • Clear skies
  • Low drifting
  • Snow
Temperatures Readings
Current -10°C / 14°F
Dewpoint -15°C / 5°F
Humidity 67%
Altimeter 29.04" Hg
Pressure 984.1 hPa
Elevation 71
METAR CYFT 161000Z 24024G37KT 15SM DRSN SKC M10/M15 A2904 RMK SLP841
Observed Flight Rules
Dec-16 @ 10:00 UTC
(51 minutes ago)
VFR
Wind Visibility
240° at 24 knots
 Gusting to 37 knots
15 miles
Clouds
  • Clear skies
Conditions
  • Low drifting
  • Snow
Temperature Dewpoint
-10°C / 14°F -15°C / 5°F
Humidity Altimeter Pressure
67% 29.04" Hg 984.1 hPa